Página principal
METAR-TAF:

METAR-TAF

Aeroportos :

Curaçao, Antilhas Neerlandesas

Aeroporto Internacional Hato

latitude: 12-12N, longitude: 068-58W, altura: 9 m

Observação actual do tempo

O boletim foi feito há 13 minutos, às 13:00 UTC
Vento 12 kt de este
Temperatura 29°C
Humidade 70%
Pressão 1015 hPa
Visibilidade 10 km ou mais
Nuvens dispersasa uma altura de 3500 ft

METAR: TNCC 211300Z AUTO 10012KT 9999 SCT035 29/23 Q1015

Hora: 09:13 (13:13 UTC)

Previsão

O boletim foi feito há 3 horas e 43 minutos, às 09:30 UTC
Previsão válida de 21 às 12 UTC a 22 às 12 UTC
Vento 14 kt de es-sudeste
Visibilidade 10 km ou mais
Nuvens dispersasa uma altura de 2000 ft
Probabilidade 30% :
Temporariamente
de 21 às 12 UTC a 21 às 18 UTC
Nuvens fragmentadasa uma altura de 1500 ft

TAF: TNCC 210930Z 2112/2212 11014KT 9999 SCT020 PROB30 TEMPO 2112/2118 BKN015

Observações e previsões do tempo de mais de 4000 aeroportos (mensagens METAR e TAF).

As estações disponíveis são os pontos amarelos e vermelhos sobre o mapa.

Mova o rato sobre o mapa para ver o nome da estação.

Depois clique no ponto para visualizar as observações e previsões meteorológicas.

Para alterar o mapa : clique nos botões verdes com uma cruz preta para aumentar o zoom; no botão verde com uma pitada de zoom; ou nas setas verdes para mapas adjacentes.


METAR-TAF: